KCOF/COF METAR and TAF weather

Enter ICAO airport designator
Station Type Date Time Source
KCOF METAR 2019/08/19 06:56 UTC NOAA

KCOF 190656Z AUTO 29003KT 10SM CLR 27/26 A3007 RMK AO2 SLP187 T02670260 $


Station Type Date Time Source
KCOF Decoded METAR 2019/08/19 06:56 UTC NOAA

Station name not available
Aug 19, 2019 - 02:56 AM EDT / 2019.08.19 0656 UTC
Wind: from the WNW (290 degrees) at 3 MPH (3 KT):0
Visibility: 10 mile(s):0
Sky conditions: clear
Temperature: 80.1 F (26.7 C)
Dew Point: 78.8 F (26.0 C)
Relative Humidity: 95%
Pressure (altimeter): 30.07 in. Hg (1018 hPa)
ob: KCOF 190656Z AUTO 29003KT 10SM CLR 27/26 A3007 RMK AO2 SLP187 T02670260
cycle: 7

Station Type Date Time Source
KCOF TAF 2019/08/18 18:31 UTC NOAA

TAF KCOF 181800Z 1818/1924 12008KT 9999 SCT030 SCT200 QNH3006INS
BECMG 1819/1820 12008KT 9999 VCTS SCT030CB SCT200 QNH3002INS
TEMPO 1820/1822 22015G22KT 3200 TSRA BKN020CB
BECMG 1823/1824 VRB05KT 9999 NSW SCT025 QNH3003INS TX30/1818Z TN26/1910Z LAST NO
AMDS AFT 1821 NEXT 1910

Example: see airport list